sensor_id;sensor_type;location;lat;lon;timestamp;pressure;altitude;pressure_sealevel;temperature;humidity
57574;BME280;63722;48.858;21.906;2022-11-15T00:00:27;99103.78;;;20.63;53.87
57574;BME280;63722;48.858;21.906;2022-11-15T00:02:53;99100.88;;;20.64;53.58
57574;BME280;63722;48.858;21.906;2022-11-15T00:05:19;99100.09;;;20.64;53.95
57574;BME280;63722;48.858;21.906;2022-11-15T00:07:44;99108.53;;;20.61;53.95
57574;BME280;63722;48.858;21.906;2022-11-15T00:10:09;99104.25;;;20.60;53.88
57574;BME280;63722;48.858;21.906;2022-11-15T00:12:35;99107.47;;;20.62;53.68
57574;BME280;63722;48.858;21.906;2022-11-15T00:15:00;99096.81;;;20.62;53.90
57574;BME280;63722;48.858;21.906;2022-11-15T00:17:28;99103.22;;;20.61;53.82
57574;BME280;63722;48.858;21.906;2022-11-15T00:19:54;99092.31;;;20.62;53.69
57574;BME280;63722;48.858;21.906;2022-11-15T00:22:20;99093.94;;;20.63;53.76
57574;BME280;63722;48.858;21.906;2022-11-15T00:24:45;99083.28;;;20.63;53.83
57574;BME280;63722;48.858;21.906;2022-11-15T00:27:11;99079.25;;;20.61;53.55
57574;BME280;63722;48.858;21.906;2022-11-15T00:29:36;99071.72;;;20.57;53.70
57574;BME280;63722;48.858;21.906;2022-11-15T00:32:04;99076.81;;;20.59;53.83
57574;BME280;63722;48.858;21.906;2022-11-15T00:34:29;99066.38;;;20.57;53.78
57574;BME280;63722;48.858;21.906;2022-11-15T00:36:55;99072.50;;;20.58;53.71
57574;BME280;63722;48.858;21.906;2022-11-15T00:39:20;99066.38;;;20.57;53.80
57574;BME280;63722;48.858;21.906;2022-11-15T00:41:45;99063.25;;;20.61;53.90
57574;BME280;63722;48.858;21.906;2022-11-15T00:44:11;99071.25;;;20.61;53.65
57574;BME280;63722;48.858;21.906;2022-11-15T00:46:36;99071.00;;;20.62;53.56
57574;BME280;63722;48.858;21.906;2022-11-15T00:49:01;99069.03;;;20.57;53.73
57574;BME280;63722;48.858;21.906;2022-11-15T00:51:27;99066.94;;;20.60;53.38
57574;BME280;63722;48.858;21.906;2022-11-15T00:53:52;99060.13;;;20.64;53.58
57574;BME280;63722;48.858;21.906;2022-11-15T00:56:18;99063.25;;;20.61;53.58
57574;BME280;63722;48.858;21.906;2022-11-15T00:58:43;99055.97;;;20.56;53.78
57574;BME280;63722;48.858;21.906;2022-11-15T01:01:10;99051.44;;;20.56;53.64
57574;BME280;63722;48.858;21.906;2022-11-15T01:03:38;99053.63;;;20.60;53.62
57574;BME280;63722;48.858;21.906;2022-11-15T01:06:04;99050.50;;;20.63;53.59
57574;BME280;63722;48.858;21.906;2022-11-15T01:08:29;99052.00;;;20.58;53.73
57574;BME280;63722;48.858;21.906;2022-11-15T01:11:07;99046.09;;;20.56;53.84
57574;BME280;63722;48.858;21.906;2022-11-15T01:13:35;99044.00;;;20.58;53.59
57574;BME280;63722;48.858;21.906;2022-11-15T01:16:12;99039.16;;;20.55;53.67
57574;BME280;63722;48.858;21.906;2022-11-15T01:18:38;99039.16;;;20.55;53.64
57574;BME280;63722;48.858;21.906;2022-11-15T01:21:05;99042.41;;;20.57;53.52
57574;BME280;63722;48.858;21.906;2022-11-15T01:23:31;99038.91;;;20.57;53.54
57574;BME280;63722;48.858;21.906;2022-11-15T01:26:01;99031.75;;;20.57;53.58
57574;BME280;63722;48.858;21.906;2022-11-15T01:28:30;99034.75;;;20.61;53.50
57574;BME280;63722;48.858;21.906;2022-11-15T01:31:00;99031.28;;;20.61;53.41
57574;BME280;63722;48.858;21.906;2022-11-15T01:33:27;99022.03;;;20.51;53.53
57574;BME280;63722;48.858;21.906;2022-11-15T01:35:54;99018.91;;;20.54;53.96
57574;BME280;63722;48.858;21.906;2022-11-15T01:38:19;99013.34;;;20.56;53.64
57574;BME280;63722;48.858;21.906;2022-11-15T01:40:45;99014.13;;;20.56;53.80
57574;BME280;63722;48.858;21.906;2022-11-15T01:43:31;99022.34;;;20.55;53.44
57574;BME280;63722;48.858;21.906;2022-11-15T01:48:55;99025.94;;;20.61;53.40
57574;BME280;63722;48.858;21.906;2022-11-15T01:51:25;99019.47;;;20.56;53.45
57574;BME280;63722;48.858;21.906;2022-11-15T01:53:55;99016.22;;;20.54;53.48
57574;BME280;63722;48.858;21.906;2022-11-15T01:56:24;99025.94;;;20.61;53.36
57574;BME280;63722;48.858;21.906;2022-11-15T01:58:51;99029.66;;;20.60;53.48
57574;BME280;63722;48.858;21.906;2022-11-15T02:01:17;99028.63;;;20.61;53.46
57574;BME280;63722;48.858;21.906;2022-11-15T02:03:52;99016.56;;;20.58;53.49
57574;BME280;63722;48.858;21.906;2022-11-15T02:06:20;99016.22;;;20.54;53.38
57574;BME280;63722;48.858;21.906;2022-11-15T02:08:46;99011.47;;;20.56;53.44
57574;BME280;63722;48.858;21.906;2022-11-15T02:11:12;99006.94;;;20.57;53.39
57574;BME280;63722;48.858;21.906;2022-11-15T02:13:37;99010.44;;;20.57;53.48
57574;BME280;63722;48.858;21.906;2022-11-15T02:16:23;99000.34;;;20.60;53.34
57574;BME280;63722;48.858;21.906;2022-11-15T02:29:53;99000.25;;;20.54;53.46
57574;BME280;63722;48.858;21.906;2022-11-15T02:32:35;99003.94;;;20.53;53.52
57574;BME280;63722;48.858;21.906;2022-11-15T02:37:56;99002.44;;;20.57;53.28
57574;BME280;63722;48.858;21.906;2022-11-15T02:43:01;98998.63;;;20.53;53.42
57574;BME280;63722;48.858;21.906;2022-11-15T02:45:51;99000.00;;;20.56;53.43
57574;BME280;63722;48.858;21.906;2022-11-15T02:48:21;98992.03;;;20.56;53.36
57574;BME280;63722;48.858;21.906;2022-11-15T02:50:47;98987.97;;;20.53;53.39
57574;BME280;63722;48.858;21.906;2022-11-15T02:53:14;98986.31;;;20.52;53.33
57574;BME280;63722;48.858;21.906;2022-11-15T02:55:51;98977.31;;;20.53;53.28
57574;BME280;63722;48.858;21.906;2022-11-15T03:01:30;98978.69;;;20.56;53.27
57574;BME280;63722;48.858;21.906;2022-11-15T03:04:43;98977.06;;;20.55;53.45
57574;BME280;63722;48.858;21.906;2022-11-15T03:07:14;98970.94;;;20.54;53.47
57574;BME280;63722;48.858;21.906;2022-11-15T03:09:56;98968.28;;;20.54;53.37
57574;BME280;63722;48.858;21.906;2022-11-15T03:14:58;98967.44;;;20.54;53.37
57574;BME280;63722;48.858;21.906;2022-11-15T03:17:33;98966.16;;;20.56;53.10
57574;BME280;63722;48.858;21.906;2022-11-15T03:20:03;98971.81;;;20.60;53.10
57574;BME280;63722;48.858;21.906;2022-11-15T03:22:39;98968.28;;;20.54;53.20
57574;BME280;63722;48.858;21.906;2022-11-15T03:25:10;98971.97;;;20.53;53.13
57574;BME280;63722;48.858;21.906;2022-11-15T03:27:43;98965.03;;;20.52;53.20
57574;BME280;63722;48.858;21.906;2022-11-15T03:30:12;98966.75;;;20.58;53.09
57574;BME280;63722;48.858;21.906;2022-11-15T03:32:42;98966.97;;;20.57;53.02
57574;BME280;63722;48.858;21.906;2022-11-15T03:35:12;98969.06;;;20.55;53.13
57574;BME280;63722;48.858;21.906;2022-11-15T03:37:57;98967.69;;;20.52;53.24
57574;BME280;63722;48.858;21.906;2022-11-15T03:40:30;98965.38;;;20.56;53.07
57574;BME280;63722;48.858;21.906;2022-11-15T03:43:04;98960.28;;;20.54;53.08
57574;BME280;63722;48.858;21.906;2022-11-15T03:45:32;98961.41;;;20.58;53.24
57574;BME280;63722;48.858;21.906;2022-11-15T03:48:10;98959.22;;;20.55;53.11
57574;BME280;63722;48.858;21.906;2022-11-15T03:50:38;98967.81;;;20.57;53.12
57574;BME280;63722;48.858;21.906;2022-11-15T03:53:03;98964.06;;;20.58;53.03
57574;BME280;63722;48.858;21.906;2022-11-15T03:55:31;98967.44;;;20.54;53.35
57574;BME280;63722;48.858;21.906;2022-11-15T03:57:59;98967.44;;;20.54;53.17
57574;BME280;63722;48.858;21.906;2022-11-15T04:00:26;98967.22;;;20.55;53.12
57574;BME280;63722;48.858;21.906;2022-11-15T04:02:51;98957.94;;;20.58;52.94
57574;BME280;63722;48.858;21.906;2022-11-15T04:05:16;98957.63;;;20.54;53.19
57574;BME280;63722;48.858;21.906;2022-11-15T04:07:42;98954.72;;;20.56;53.07
57574;BME280;63722;48.858;21.906;2022-11-15T04:10:09;98950.34;;;20.50;53.09
57574;BME280;63722;48.858;21.906;2022-11-15T04:12:38;98947.53;;;20.56;53.09
57574;BME280;63722;48.858;21.906;2022-11-15T04:15:07;98953.31;;;20.53;53.06
57574;BME280;63722;48.858;21.906;2022-11-15T04:17:50;98956.78;;;20.54;53.17
57574;BME280;63722;48.858;21.906;2022-11-15T04:23:10;98947.44;;;20.51;53.17
57574;BME280;63722;48.858;21.906;2022-11-15T04:25:55;98934.91;;;20.52;52.96
57574;BME280;63722;48.858;21.906;2022-11-15T04:28:22;98941.03;;;20.52;53.07
57574;BME280;63722;48.858;21.906;2022-11-15T04:30:47;98943.69;;;20.52;53.08
57574;BME280;63722;48.858;21.906;2022-11-15T04:33:13;98936.78;;;20.51;52.95
57574;BME280;63722;48.858;21.906;2022-11-15T04:35:39;98934.69;;;20.53;53.10
57574;BME280;63722;48.858;21.906;2022-11-15T04:38:06;98932.56;;;20.55;52.92
57574;BME280;63722;48.858;21.906;2022-11-15T04:40:32;98936.31;;;20.54;52.90
57574;BME280;63722;48.858;21.906;2022-11-15T04:42:58;98931.31;;;20.58;52.94
57574;BME280;63722;48.858;21.906;2022-11-15T04:45:23;98928.31;;;20.54;53.05
57574;BME280;63722;48.858;21.906;2022-11-15T04:47:48;98920.31;;;20.54;53.06
57574;BME280;63722;48.858;21.906;2022-11-15T04:50:15;98923.47;;;20.51;53.10
57574;BME280;63722;48.858;21.906;2022-11-15T04:52:41;98927.72;;;20.52;53.02
57574;BME280;63722;48.858;21.906;2022-11-15T04:55:11;98916.25;;;20.52;52.79
57574;BME280;63722;48.858;21.906;2022-11-15T04:57:37;98921.13;;;20.55;52.79
57574;BME280;63722;48.858;21.906;2022-11-15T05:00:04;98918.44;;;20.55;52.85
57574;BME280;63722;48.858;21.906;2022-11-15T05:02:30;98926.44;;;20.55;52.70
57574;BME280;63722;48.858;21.906;2022-11-15T05:05:16;98914.41;;;20.52;52.84
57574;BME280;63722;48.858;21.906;2022-11-15T05:07:41;98914.41;;;20.52;53.11
57574;BME280;63722;48.858;21.906;2022-11-15T05:10:07;98915.78;;;20.55;52.84
57574;BME280;63722;48.858;21.906;2022-11-15T05:12:32;98918.44;;;20.55;52.92
57574;BME280;63722;48.858;21.906;2022-11-15T05:14:57;98919.25;;;20.55;52.96
57574;BME280;63722;48.858;21.906;2022-11-15T05:17:23;98911.25;;;20.55;52.79
57574;BME280;63722;48.858;21.906;2022-11-15T05:19:48;98911.25;;;20.55;52.79
57574;BME280;63722;48.858;21.906;2022-11-15T05:22:13;98916.13;;;20.58;52.63
57574;BME280;63722;48.858;21.906;2022-11-15T05:24:39;98911.13;;;20.62;52.74
57574;BME280;63722;48.858;21.906;2022-11-15T05:27:04;98907.78;;;20.67;52.62
57574;BME280;63722;48.858;21.906;2022-11-15T05:29:29;98914.25;;;20.71;52.51
57574;BME280;63722;48.858;21.906;2022-11-15T05:31:55;98906.00;;;20.72;52.37
57574;BME280;63722;48.858;21.906;2022-11-15T05:34:20;98911.34;;;20.72;52.60
57574;BME280;63722;48.858;21.906;2022-11-15T05:36:48;98898.38;;;20.76;52.46
57574;BME280;63722;48.858;21.906;2022-11-15T05:39:14;98906.34;;;20.76;52.40
57574;BME280;63722;48.858;21.906;2022-11-15T05:41:42;98904.44;;;20.88;52.25
57574;BME280;63722;48.858;21.906;2022-11-15T05:44:10;98903.78;;;20.81;52.26
57574;BME280;63722;48.858;21.906;2022-11-15T05:46:37;98910.81;;;20.87;52.27
57574;BME280;63722;48.858;21.906;2022-11-15T05:49:06;98904.53;;;20.93;52.19
57574;BME280;63722;48.858;21.906;2022-11-15T05:51:32;98901.38;;;20.97;52.02
57574;BME280;63722;48.858;21.906;2022-11-15T05:53:58;98901.38;;;20.97;52.44
57574;BME280;63722;48.858;21.906;2022-11-15T05:56:24;98901.63;;;20.95;52.22
57574;BME280;63722;48.858;21.906;2022-11-15T05:58:52;98906.88;;;21.07;52.15
57574;BME280;63722;48.858;21.906;2022-11-15T06:01:18;98910.66;;;21.11;51.88
57574;BME280;63722;48.858;21.906;2022-11-15T06:03:43;98906.72;;;21.14;51.68
57574;BME280;63722;48.858;21.906;2022-11-15T06:06:09;98914.63;;;21.25;51.64
57574;BME280;63722;48.858;21.906;2022-11-15T06:08:37;98917.69;;;21.17;51.72
57574;BME280;63722;48.858;21.906;2022-11-15T06:11:06;98914.06;;;21.23;51.48
57574;BME280;63722;48.858;21.906;2022-11-15T06:13:33;98917.53;;;21.24;51.74
57574;BME280;63722;48.858;21.906;2022-11-15T06:15:59;98913.53;;;18.07;43.14
57574;BME280;63722;48.858;21.906;2022-11-15T06:18:24;98911.06;;;18.61;51.59
57574;BME280;63722;48.858;21.906;2022-11-15T06:20:50;98914.41;;;20.00;49.24
57574;BME280;63722;48.858;21.906;2022-11-15T06:23:15;98916.13;;;20.58;47.82
57574;BME280;63722;48.858;21.906;2022-11-15T06:25:40;98915.91;;;20.89;47.45
57574;BME280;63722;48.858;21.906;2022-11-15T06:28:06;98912.72;;;21.04;46.93
57574;BME280;63722;48.858;21.906;2022-11-15T06:30:31;98924.31;;;21.15;47.13
57574;BME280;63722;48.858;21.906;2022-11-15T06:33:01;98922.06;;;21.23;47.54
57574;BME280;63722;48.858;21.906;2022-11-15T06:35:27;98915.13;;;21.22;47.61
57574;BME280;63722;48.858;21.906;2022-11-15T06:37:52;98917.41;;;21.31;47.61
57574;BME280;63722;48.858;21.906;2022-11-15T06:40:18;98916.00;;;21.28;47.88
57574;BME280;63722;48.858;21.906;2022-11-15T06:42:43;98920.06;;;21.31;48.16
57574;BME280;63722;48.858;21.906;2022-11-15T06:45:09;98922.25;;;21.34;48.14
57574;BME280;63722;48.858;21.906;2022-11-15T06:47:34;98918.50;;;21.35;48.45
57574;BME280;63722;48.858;21.906;2022-11-15T06:49:59;98906.38;;;21.44;48.67
57574;BME280;63722;48.858;21.906;2022-11-15T06:52:25;98904.13;;;21.36;48.97
57574;BME280;63722;48.858;21.906;2022-11-15T06:54:50;98908.97;;;21.39;49.18
57574;BME280;63722;48.858;21.906;2022-11-15T06:57:16;98906.88;;;21.41;49.48
57574;BME280;63722;48.858;21.906;2022-11-15T06:59:41;98914.31;;;21.39;49.81
57574;BME280;63722;48.858;21.906;2022-11-15T07:04:36;98907.34;;;21.38;49.59
57574;BME280;63722;48.858;21.906;2022-11-15T07:07:02;98911.09;;;21.37;49.92
57574;BME280;63722;48.858;21.906;2022-11-15T07:09:27;98905.59;;;21.60;49.42
57574;BME280;63722;48.858;21.906;2022-11-15T07:11:52;98907.72;;;21.58;49.55
57574;BME280;63722;48.858;21.906;2022-11-15T07:14:18;98912.44;;;21.73;49.24
57574;BME280;63722;48.858;21.906;2022-11-15T07:16:43;98906.25;;;21.68;49.42
57574;BME280;63722;48.858;21.906;2022-11-15T07:19:09;98904.13;;;21.70;49.37
57574;BME280;63722;48.858;21.906;2022-11-15T07:21:34;98904.63;;;21.67;49.70
57574;BME280;63722;48.858;21.906;2022-11-15T07:24:00;98892.31;;;21.66;49.84
57574;BME280;63722;48.858;21.906;2022-11-15T07:26:25;98885.44;;;21.70;49.58
57574;BME280;63722;48.858;21.906;2022-11-15T07:28:50;98888.16;;;21.75;49.64
57574;BME280;63722;48.858;21.906;2022-11-15T07:31:16;98890.09;;;21.79;48.57
57574;BME280;63722;48.858;21.906;2022-11-15T07:33:41;98882.84;;;21.75;48.41
57574;BME280;63722;48.858;21.906;2022-11-15T07:36:08;98886.56;;;21.74;48.44
57574;BME280;63722;48.858;21.906;2022-11-15T07:38:34;98886.34;;;21.75;48.54
57574;BME280;63722;48.858;21.906;2022-11-15T07:41:03;98892.41;;;21.71;48.99
57574;BME280;63722;48.858;21.906;2022-11-15T07:43:29;98892.91;;;21.68;48.89
57574;BME280;63722;48.858;21.906;2022-11-15T07:45:55;98883.41;;;21.77;49.00
57574;BME280;63722;48.858;21.906;2022-11-15T07:48:20;98884.91;;;21.90;48.99
57574;BME280;63722;48.858;21.906;2022-11-15T07:50:46;98885.78;;;21.95;49.03
57574;BME280;63722;48.858;21.906;2022-11-15T07:53:11;98887.88;;;21.93;49.29
57574;BME280;63722;48.858;21.906;2022-11-15T07:55:39;98881.59;;;21.82;49.47
57574;BME280;63722;48.858;21.906;2022-11-15T07:58:07;98884.03;;;21.84;49.78
57574;BME280;63722;48.858;21.906;2022-11-15T08:00:34;98876.91;;;21.90;49.79
57574;BME280;63722;48.858;21.906;2022-11-15T08:03:14;98874.47;;;21.88;49.71
57574;BME280;63722;48.858;21.906;2022-11-15T08:05:40;98872.44;;;21.95;49.64
57574;BME280;63722;48.858;21.906;2022-11-15T08:08:08;98870.50;;;21.91;49.83
57574;BME280;63722;48.858;21.906;2022-11-15T08:10:34;98861.75;;;21.95;49.88
57574;BME280;63722;48.858;21.906;2022-11-15T08:13:04;98859.63;;;21.97;50.17
57574;BME280;63722;48.858;21.906;2022-11-15T08:15:30;98860.63;;;21.91;50.18
57574;BME280;63722;48.858;21.906;2022-11-15T08:17:57;98866.22;;;21.90;50.48
57574;BME280;63722;48.858;21.906;2022-11-15T08:20:24;98846.03;;;21.99;50.32
57574;BME280;63722;48.858;21.906;2022-11-15T08:22:50;98867.78;;;22.08;50.30
57574;BME280;63722;48.858;21.906;2022-11-15T08:25:16;98854.94;;;22.05;49.96
57574;BME280;63722;48.858;21.906;2022-11-15T08:27:41;98853.84;;;22.06;50.15
57574;BME280;63722;48.858;21.906;2022-11-15T08:30:07;98852.06;;;22.11;50.33
57574;BME280;63722;48.858;21.906;2022-11-15T08:32:32;98841.88;;;22.08;50.60
57574;BME280;63722;48.858;21.906;2022-11-15T08:34:58;98844.09;;;22.16;50.48
57574;BME280;63722;48.858;21.906;2022-11-15T08:37:23;98836.41;;;22.20;50.53
57574;BME280;63722;48.858;21.906;2022-11-15T08:39:49;98833.78;;;22.25;50.63
57574;BME280;63722;48.858;21.906;2022-11-15T08:42:14;98837.91;;;22.33;50.63
57574;BME280;63722;48.858;21.906;2022-11-15T08:44:41;98833.53;;;22.27;50.76
57574;BME280;63722;48.858;21.906;2022-11-15T08:47:06;98826.41;;;22.32;50.97
57574;BME280;63722;48.858;21.906;2022-11-15T08:49:32;98814.91;;;22.32;51.19
57574;BME280;63722;48.858;21.906;2022-11-15T08:51:57;98825.91;;;22.35;51.32
57574;BME280;63722;48.858;21.906;2022-11-15T08:54:22;98825.34;;;22.33;51.52
57574;BME280;63722;48.858;21.906;2022-11-15T08:56:48;98836.66;;;22.41;51.27
57574;BME280;63722;48.858;21.906;2022-11-15T08:59:13;98829.13;;;22.38;51.31
57574;BME280;63722;48.858;21.906;2022-11-15T09:01:39;98832.84;;;22.37;50.68
57574;BME280;63722;48.858;21.906;2022-11-15T09:04:05;98835.19;;;20.48;54.56
57574;BME280;63722;48.858;21.906;2022-11-15T09:06:31;98824.41;;;21.56;50.17
57574;BME280;63722;48.858;21.906;2022-11-15T09:08:57;98824.31;;;21.90;49.21
57574;BME280;63722;48.858;21.906;2022-11-15T09:11:22;98818.34;;;22.05;49.26
57574;BME280;63722;48.858;21.906;2022-11-15T09:13:49;98814.78;;;22.22;49.07
57574;BME280;63722;48.858;21.906;2022-11-15T09:16:14;98823.16;;;22.30;49.32
57574;BME280;63722;48.858;21.906;2022-11-15T09:18:40;98812.50;;;22.30;49.35
57574;BME280;63722;48.858;21.906;2022-11-15T09:21:06;98795.34;;;22.26;49.64
57574;BME280;63722;48.858;21.906;2022-11-15T09:23:32;98812.25;;;22.32;49.78
57574;BME280;63722;48.858;21.906;2022-11-15T09:25:59;98817.69;;;22.42;49.81
57574;BME280;63722;48.858;21.906;2022-11-15T09:28:27;98810.19;;;22.39;49.96
57574;BME280;63722;48.858;21.906;2022-11-15T09:30:56;98809.44;;;22.44;50.08
57574;BME280;63722;48.858;21.906;2022-11-15T09:33:22;98797.94;;;22.43;50.31
57574;BME280;63722;48.858;21.906;2022-11-15T09:35:48;98796.94;;;22.49;50.52
57574;BME280;63722;48.858;21.906;2022-11-15T09:38:18;98796.66;;;22.51;50.51
57574;BME280;63722;48.858;21.906;2022-11-15T09:40:52;98792.63;;;22.48;50.74
57574;BME280;63722;48.858;21.906;2022-11-15T09:48:39;98787.69;;;22.62;50.93
57574;BME280;63722;48.858;21.906;2022-11-15T09:51:33;98780.28;;;22.75;50.78
57574;BME280;63722;48.858;21.906;2022-11-15T09:56:39;98770.63;;;22.68;50.92
57574;BME280;63722;48.858;21.906;2022-11-15T10:04:39;98763.91;;;22.66;51.22
57574;BME280;63722;48.858;21.906;2022-11-15T10:07:24;98756.09;;;22.54;51.39
57574;BME280;63722;48.858;21.906;2022-11-15T10:10:02;98764.00;;;22.44;51.59
57574;BME280;63722;48.858;21.906;2022-11-15T10:12:30;98749.28;;;22.41;51.93
57574;BME280;63722;48.858;21.906;2022-11-15T10:15:11;98755.09;;;22.33;52.11
57574;BME280;63722;48.858;21.906;2022-11-15T10:18:06;98738.66;;;22.24;52.11
57574;BME280;63722;48.858;21.906;2022-11-15T10:20:47;98751.47;;;22.22;52.19
57574;BME280;63722;48.858;21.906;2022-11-15T10:23:16;98733.84;;;22.21;52.33
57574;BME280;63722;48.858;21.906;2022-11-15T10:25:42;98726.56;;;22.16;52.23
57574;BME280;63722;48.858;21.906;2022-11-15T10:30:49;98723.13;;;22.16;52.43
57574;BME280;63722;48.858;21.906;2022-11-15T10:46:33;98685.72;;;22.16;52.61
57574;BME280;63722;48.858;21.906;2022-11-15T10:49:20;98696.16;;;22.17;52.71
57574;BME280;63722;48.858;21.906;2022-11-15T10:51:54;98699.59;;;22.13;52.67
57574;BME280;63722;48.858;21.906;2022-11-15T10:54:32;98694.25;;;22.13;52.73
57574;BME280;63722;48.858;21.906;2022-11-15T10:57:01;98696.38;;;22.11;52.84
57574;BME280;63722;48.858;21.906;2022-11-15T10:59:32;98683.34;;;22.20;52.81
57574;BME280;63722;48.858;21.906;2022-11-15T11:01:59;98685.47;;;22.17;52.76
57574;BME280;63722;48.858;21.906;2022-11-15T11:04:24;98677.72;;;22.16;53.04
57574;BME280;63722;48.858;21.906;2022-11-15T11:06:55;98676.09;;;22.15;53.15
57574;BME280;63722;48.858;21.906;2022-11-15T11:11:57;98665.72;;;22.18;53.23
57574;BME280;63722;48.858;21.906;2022-11-15T11:14:25;98659.56;;;22.18;53.08
57574;BME280;63722;48.858;21.906;2022-11-15T11:17:23;98659.03;;;22.21;53.27
57574;BME280;63722;48.858;21.906;2022-11-15T11:20:20;98650.50;;;22.19;53.35
57574;BME280;63722;48.858;21.906;2022-11-15T11:23:05;98649.38;;;22.15;53.52
57574;BME280;63722;48.858;21.906;2022-11-15T11:25:41;98656.72;;;22.30;53.16
57574;BME280;63722;48.858;21.906;2022-11-15T11:33:31;98639.97;;;22.40;53.32
57574;BME280;63722;48.858;21.906;2022-11-15T11:38:51;98631.72;;;22.41;53.93
57574;BME280;63722;48.858;21.906;2022-11-15T11:42:03;98620.22;;;22.41;54.02
57574;BME280;63722;48.858;21.906;2022-11-15T11:47:46;98612.75;;;22.43;54.04
57574;BME280;63722;48.858;21.906;2022-11-15T11:50:17;98595.66;;;22.39;54.41
57574;BME280;63722;48.858;21.906;2022-11-15T11:53:09;98595.66;;;22.39;54.87
57574;BME280;63722;48.858;21.906;2022-11-15T11:55:39;98583.34;;;22.38;54.97
57574;BME280;63722;48.858;21.906;2022-11-15T11:58:26;98576.44;;;22.47;54.67
57574;BME280;63722;48.858;21.906;2022-11-15T12:01:15;98582.59;;;22.47;54.73
57574;BME280;63722;48.858;21.906;2022-11-15T12:14:34;98572.38;;;19.23;49.50
57574;BME280;63722;48.858;21.906;2022-11-15T12:17:01;98568.59;;;20.88;51.91
57574;BME280;63722;48.858;21.906;2022-11-15T12:19:28;98556.25;;;21.54;50.23
57574;BME280;63722;48.858;21.906;2022-11-15T12:25:13;98564.06;;;21.98;49.97
57574;BME280;63722;48.858;21.906;2022-11-15T12:27:44;98560.63;;;22.03;50.23
57574;BME280;63722;48.858;21.906;2022-11-15T12:30:17;98562.75;;;22.00;50.50
57574;BME280;63722;48.858;21.906;2022-11-15T12:32:58;98554.50;;;22.02;50.54
57574;BME280;63722;48.858;21.906;2022-11-15T12:37:53;98556.41;;;22.12;50.94
57574;BME280;63722;48.858;21.906;2022-11-15T13:06:45;98519.59;;;22.14;52.09
57574;BME280;63722;48.858;21.906;2022-11-15T13:19:52;98504.13;;;22.21;52.44
57574;BME280;63722;48.858;21.906;2022-11-15T13:22:18;98503.09;;;22.22;52.25
57574;BME280;63722;48.858;21.906;2022-11-15T13:25:02;98492.91;;;22.19;52.14
57574;BME280;63722;48.858;21.906;2022-11-15T13:27:28;98491.88;;;22.20;52.64
57574;BME280;63722;48.858;21.906;2022-11-15T13:29:54;98486.53;;;22.20;52.49
57574;BME280;63722;48.858;21.906;2022-11-15T13:32:20;98479.53;;;22.14;52.73
57574;BME280;63722;48.858;21.906;2022-11-15T13:34:48;98484.38;;;22.17;52.75
57574;BME280;63722;48.858;21.906;2022-11-15T13:39:47;98480.88;;;22.16;52.84
57574;BME280;63722;48.858;21.906;2022-11-15T13:42:20;98476.88;;;22.19;53.07
57574;BME280;63722;48.858;21.906;2022-11-15T13:44:57;98475.31;;;22.23;52.83
57574;BME280;63722;48.858;21.906;2022-11-15T13:47:25;98477.44;;;22.21;52.86
57574;BME280;63722;48.858;21.906;2022-11-15T13:49:58;98473.69;;;22.22;53.43
57574;BME280;63722;48.858;21.906;2022-11-15T13:52:28;98482.78;;;22.21;52.88
57574;BME280;63722;48.858;21.906;2022-11-15T13:55:10;98482.00;;;22.26;53.09
57574;BME280;63722;48.858;21.906;2022-11-15T13:57:42;98481.97;;;22.15;53.19
57574;BME280;63722;48.858;21.906;2022-11-15T14:05:39;98483.78;;;22.10;53.36
57574;BME280;63722;48.858;21.906;2022-11-15T14:08:23;98481.09;;;22.10;53.72
57574;BME280;63722;48.858;21.906;2022-11-15T14:11:06;98480.06;;;22.11;53.62
57574;BME280;63722;48.858;21.906;2022-11-15T14:13:31;98470.97;;;22.12;53.58
57574;BME280;63722;48.858;21.906;2022-11-15T14:16:18;98455.72;;;22.07;53.55
57574;BME280;63722;48.858;21.906;2022-11-15T14:18:52;98453.88;;;22.13;53.50
57574;BME280;63722;48.858;21.906;2022-11-15T14:21:19;98456.81;;;22.11;53.50
57574;BME280;63722;48.858;21.906;2022-11-15T14:23:44;98452.78;;;22.09;53.71
57574;BME280;63722;48.858;21.906;2022-11-15T14:26:28;98439.69;;;22.07;53.85
57574;BME280;63722;48.858;21.906;2022-11-15T14:28:53;98438.13;;;22.11;53.87
57574;BME280;63722;48.858;21.906;2022-11-15T14:31:19;98434.66;;;22.11;53.71
57574;BME280;63722;48.858;21.906;2022-11-15T14:33:45;98427.94;;;22.03;54.05
57574;BME280;63722;48.858;21.906;2022-11-15T14:36:20;98426.88;;;22.04;54.03
57574;BME280;63722;48.858;21.906;2022-11-15T14:38:46;98413.25;;;22.00;54.01
57574;BME280;63722;48.858;21.906;2022-11-15T14:41:23;98414.34;;;22.05;54.29
57574;BME280;63722;48.858;21.906;2022-11-15T14:43:50;98402.56;;;22.06;53.81
57574;BME280;63722;48.858;21.906;2022-11-15T14:46:16;98413.78;;;22.03;54.17
57574;BME280;63722;48.858;21.906;2022-11-15T14:48:41;98416.50;;;22.08;54.11
57574;BME280;63722;48.858;21.906;2022-11-15T14:51:16;98410.28;;;21.97;54.31
57574;BME280;63722;48.858;21.906;2022-11-15T14:53:42;98418.25;;;21.87;54.92
57574;BME280;63722;48.858;21.906;2022-11-15T14:56:08;98421.41;;;21.84;54.26
57574;BME280;63722;48.858;21.906;2022-11-15T14:58:34;98419.00;;;21.82;54.40
57574;BME280;63722;48.858;21.906;2022-11-15T15:00:59;98420.63;;;21.83;54.37
57574;BME280;63722;48.858;21.906;2022-11-15T15:03:24;98408.88;;;21.84;54.17
57574;BME280;63722;48.858;21.906;2022-11-15T15:05:50;98420.13;;;21.86;54.13
57574;BME280;63722;48.858;21.906;2022-11-15T15:08:15;98413.16;;;21.85;54.26
57574;BME280;63722;48.858;21.906;2022-11-15T15:10:43;98418.50;;;21.85;54.38
57574;BME280;63722;48.858;21.906;2022-11-15T15:13:20;98412.84;;;21.76;54.32
57574;BME280;63722;48.858;21.906;2022-11-15T15:15:47;98414.72;;;21.76;54.45